createdAt,value
2023-03-13T00:01:21.335Z,100.00
2023-03-13T00:04:22.933Z,100.00
2023-03-13T00:07:24.409Z,100.00
2023-03-13T00:10:27.224Z,100.00
2023-03-13T00:13:28.719Z,100.00
2023-03-13T00:16:30.433Z,100.00
2023-03-13T00:19:32.007Z,100.00
2023-03-13T00:22:33.505Z,100.00
2023-03-13T00:25:35.009Z,100.00
2023-03-13T00:28:37.190Z,100.00
2023-03-13T00:31:38.774Z,100.00
2023-03-13T00:34:40.281Z,100.00
2023-03-13T00:37:42.564Z,100.00
2023-03-13T00:40:44.092Z,100.00
2023-03-13T00:43:46.100Z,100.00
2023-03-13T00:46:47.615Z,100.00
2023-03-13T00:49:49.130Z,100.00
2023-03-13T00:52:50.623Z,100.00
2023-03-13T00:56:05.895Z,100.00
2023-03-13T00:59:07.450Z,100.00
2023-03-13T01:02:09.034Z,100.00
2023-03-13T01:05:10.645Z,100.00
2023-03-13T01:08:12.143Z,100.00
2023-03-13T01:11:18.810Z,100.00
2023-03-13T01:14:20.325Z,100.00
2023-03-13T01:17:21.810Z,100.00
2023-03-13T01:20:23.269Z,100.00
2023-03-13T01:23:24.813Z,100.00
2023-03-13T01:26:26.510Z,100.00
2023-03-13T01:29:28.026Z,100.00
2023-03-13T01:32:29.576Z,100.00
2023-03-13T01:35:31.391Z,100.00
2023-03-13T01:38:32.930Z,100.00
2023-03-13T01:41:34.442Z,100.00
2023-03-13T01:44:52.817Z,100.00
2023-03-13T01:47:54.327Z,100.00
2023-03-13T01:50:55.849Z,100.00
2023-03-13T01:54:17.089Z,100.00
2023-03-13T01:57:29.618Z,100.00
2023-03-13T02:00:32.193Z,100.00
2023-03-13T02:03:33.832Z,100.00
2023-03-13T02:06:36.317Z,100.00
2023-03-13T02:09:37.953Z,100.00
2023-03-13T02:12:39.715Z,100.00
2023-03-13T02:15:41.321Z,100.00
2023-03-13T02:18:42.837Z,100.00
2023-03-13T02:21:59.558Z,100.00
2023-03-13T02:25:25.614Z,100.00
2023-03-13T02:28:33.911Z,100.00
2023-03-13T02:31:35.587Z,100.00
2023-03-13T02:34:38.578Z,100.00
2023-03-13T02:37:42.026Z,100.00
2023-03-13T02:40:45.197Z,100.00
2023-03-13T02:43:46.683Z,100.00
2023-03-13T02:46:52.445Z,100.00
2023-03-13T02:49:54.081Z,100.00
2023-03-13T02:52:57.243Z,100.00
2023-03-13T02:55:58.720Z,100.00
2023-03-13T02:59:00.506Z,100.00
2023-03-13T03:02:02.205Z,100.00
2023-03-13T03:05:04.207Z,100.00
2023-03-13T03:08:05.738Z,100.00
2023-03-13T03:11:07.326Z,100.00
2023-03-13T03:14:09.302Z,100.00
2023-03-13T03:17:10.816Z,100.00
2023-03-13T03:20:12.385Z,100.00
2023-03-13T03:23:13.942Z,100.00
2023-03-13T03:26:15.437Z,100.00
2023-03-13T03:29:16.905Z,100.00
2023-03-13T03:32:18.421Z,100.00
2023-03-13T03:35:19.927Z,100.00
2023-03-13T03:38:21.433Z,100.00
2023-03-13T03:41:22.898Z,100.00
2023-03-13T03:44:24.697Z,100.00
2023-03-13T03:47:26.261Z,100.00
2023-03-13T03:50:27.851Z,100.00
2023-03-13T03:53:29.366Z,100.00
2023-03-13T03:56:30.842Z,100.00
2023-03-13T03:59:32.356Z,100.00
2023-03-13T04:02:33.875Z,100.00
2023-03-13T04:05:35.358Z,100.00
2023-03-13T04:08:36.884Z,100.00
2023-03-13T04:11:38.458Z,100.00
2023-03-13T04:14:39.926Z,100.00
2023-03-13T04:17:41.394Z,100.00
2023-03-13T04:20:42.892Z,100.00
2023-03-13T04:23:44.394Z,100.00
2023-03-13T04:26:45.880Z,100.00
2023-03-13T04:29:47.349Z,100.00
2023-03-13T04:32:50.960Z,100.00
2023-03-13T04:35:52.536Z,100.00
2023-03-13T04:38:54.092Z,100.00
2023-03-13T04:41:55.614Z,100.00
2023-03-13T04:44:57.110Z,100.00
2023-03-13T04:47:58.630Z,100.00
2023-03-13T04:51:00.121Z,100.00
2023-03-13T04:54:01.636Z,100.00
2023-03-13T04:57:03.159Z,100.00
2023-03-13T05:00:08.055Z,100.00
2023-03-13T05:03:09.593Z,100.00
2023-03-13T05:06:11.163Z,100.00
2023-03-13T05:09:12.795Z,100.00
2023-03-13T05:12:14.300Z,100.00
2023-03-13T05:15:15.765Z,100.00
2023-03-13T05:18:17.245Z,100.00
2023-03-13T05:21:18.751Z,100.00
2023-03-13T05:24:20.235Z,100.00
2023-03-13T05:27:21.977Z,100.00
2023-03-13T05:30:23.463Z,100.00
2023-03-13T05:33:24.951Z,100.00
2023-03-13T05:36:26.444Z,100.00
2023-03-13T05:39:27.939Z,100.00
2023-03-13T05:42:29.464Z,100.00
2023-03-13T05:45:30.985Z,100.00
2023-03-13T05:48:32.473Z,100.00
2023-03-13T05:51:34.104Z,100.00
2023-03-13T05:54:35.580Z,100.00
2023-03-13T05:57:37.128Z,100.00
2023-03-13T06:00:38.603Z,100.00
2023-03-13T06:03:40.317Z,100.00
2023-03-13T06:06:42.014Z,100.00
2023-03-13T06:09:43.539Z,100.00
2023-03-13T06:12:45.082Z,100.00
2023-03-13T06:15:53.887Z,100.00
2023-03-13T06:18:55.451Z,100.00
2023-03-13T06:21:56.969Z,100.00
2023-03-13T06:24:58.484Z,100.00
2023-03-13T06:27:59.961Z,100.00
2023-03-13T06:31:03.056Z,100.00
2023-03-13T06:34:04.594Z,100.00
2023-03-13T06:37:06.143Z,100.00
2023-03-13T06:40:08.492Z,100.00
2023-03-13T06:43:09.925Z,100.00
2023-03-13T06:46:22.306Z,100.00
2023-03-13T06:49:23.788Z,100.00
2023-03-13T06:52:37.487Z,100.00
2023-03-13T06:55:43.283Z,100.00
2023-03-13T06:58:48.422Z,100.00
2023-03-13T07:01:49.954Z,100.00
2023-03-13T07:04:51.430Z,100.00
2023-03-13T07:07:52.963Z,100.00
2023-03-13T07:10:54.956Z,100.00
2023-03-13T07:14:10.007Z,100.00
2023-03-13T07:17:17.096Z,100.00
2023-03-13T07:20:18.890Z,100.00
2023-03-13T07:23:20.827Z,100.00
2023-03-13T07:26:22.383Z,100.00
2023-03-13T07:29:23.910Z,100.00
2023-03-13T07:32:25.450Z,100.00
2023-03-13T07:35:26.961Z,100.00
2023-03-13T07:38:28.498Z,100.00
2023-03-13T07:41:29.989Z,100.00
2023-03-13T07:44:31.700Z,100.00
2023-03-13T07:47:36.280Z,100.00
2023-03-13T07:50:37.800Z,100.00
2023-03-13T07:53:39.374Z,100.00
2023-03-13T07:56:40.871Z,100.00
2023-03-13T07:59:42.375Z,100.00
2023-03-13T08:02:43.932Z,100.00
2023-03-13T08:05:45.640Z,100.00
2023-03-13T08:08:47.486Z,100.00
2023-03-13T08:11:49.070Z,100.00
2023-03-13T08:14:50.614Z,100.00
2023-03-13T08:17:52.907Z,100.00
2023-03-13T08:20:54.416Z,100.00
2023-03-13T08:23:57.910Z,100.00
2023-03-13T08:26:59.498Z,100.00
2023-03-13T08:30:00.995Z,100.00
2023-03-13T08:33:02.677Z,100.00
2023-03-13T08:36:17.516Z,100.00
2023-03-13T08:39:19.819Z,100.00
2023-03-13T08:42:21.319Z,100.00
2023-03-13T08:45:22.786Z,100.00
2023-03-13T08:48:24.387Z,100.00
2023-03-13T08:51:26.797Z,100.00
2023-03-13T08:54:28.332Z,100.00
2023-03-13T08:57:29.811Z,100.00
2023-03-13T09:00:31.274Z,100.00
2023-03-13T09:03:33.084Z,100.00
2023-03-13T09:06:35.759Z,100.00
2023-03-13T09:09:37.274Z,100.00
2023-03-13T09:12:38.817Z,100.00
2023-03-13T09:15:40.310Z,100.00
2023-03-13T09:18:42.006Z,100.00
2023-03-13T09:21:43.516Z,100.00
2023-03-13T09:24:45.002Z,100.00
2023-03-13T09:27:46.515Z,100.00
2023-03-13T09:30:50.015Z,100.00
2023-03-13T09:33:51.717Z,100.00
2023-03-13T09:36:53.104Z,100.00
2023-03-13T09:39:54.875Z,100.00
2023-03-13T09:42:59.834Z,100.00
2023-03-13T09:46:03.039Z,100.00
2023-03-13T09:49:09.720Z,100.00
2023-03-13T09:52:29.096Z,100.00
2023-03-13T09:55:31.592Z,100.00
2023-03-13T09:58:33.089Z,100.00
2023-03-13T10:01:34.605Z,100.00
2023-03-13T10:04:41.706Z,100.00
2023-03-13T10:07:43.603Z,100.00
2023-03-13T10:10:56.066Z,100.00
2023-03-13T10:14:17.039Z,100.00
2023-03-13T10:17:36.740Z,100.00
2023-03-13T10:20:42.865Z,100.00
2023-03-13T10:23:49.394Z,100.00
2023-03-13T10:26:50.917Z,100.00
2023-03-13T10:29:52.660Z,100.00
2023-03-13T10:32:54.891Z,100.00
2023-03-13T10:36:01.238Z,100.00
2023-03-13T10:39:02.737Z,100.00
2023-03-13T10:42:16.333Z,98.74
2023-03-13T10:45:19.652Z,96.41
2023-03-13T10:48:26.134Z,90.17
2023-03-13T10:51:35.707Z,92.61
2023-03-13T10:54:39.514Z,82.87
2023-03-13T10:57:44.344Z,97.95
2023-03-13T11:00:45.950Z,97.08
2023-03-13T11:03:48.186Z,94.54
2023-03-13T11:06:53.075Z,92.42
2023-03-13T11:10:02.015Z,89.72
2023-03-13T11:13:03.950Z,88.45
2023-03-13T11:16:10.988Z,90.18
2023-03-13T11:19:42.607Z,91.59
2023-03-13T11:23:08.481Z,89.51
2023-03-13T11:26:18.481Z,88.56
2023-03-13T11:29:29.916Z,85.28
2023-03-13T11:33:05.087Z,86.58
2023-03-13T11:36:28.804Z,85.02
2023-03-13T11:39:47.029Z,80.68
2023-03-13T11:43:25.822Z,83.07
2023-03-13T11:46:41.016Z,84.21
2023-03-13T11:49:57.829Z,81.29
2023-03-13T11:53:02.369Z,79.41
2023-03-13T11:56:10.492Z,79.82
2023-03-13T11:59:37.721Z,84.07
2023-03-13T12:02:59.463Z,86.86
2023-03-13T12:06:02.299Z,84.80
2023-03-13T12:09:12.709Z,83.90
2023-03-13T12:12:42.079Z,81.04
2023-03-13T12:15:44.751Z,83.05
2023-03-13T12:18:46.351Z,81.70
2023-03-13T12:21:49.740Z,81.33
2023-03-13T12:25:06.621Z,80.73
2023-03-13T12:28:25.732Z,75.53
2023-03-13T12:31:41.474Z,77.24
2023-03-13T12:35:08.908Z,77.57
2023-03-13T12:38:17.619Z,77.68
2023-03-13T12:41:36.189Z,76.29
2023-03-13T12:44:37.713Z,77.73
2023-03-13T12:47:56.934Z,80.63
2023-03-13T12:51:11.986Z,79.86
2023-03-13T12:54:28.593Z,75.68
2023-03-13T12:57:58.762Z,76.90
2023-03-13T13:01:02.771Z,81.73
2023-03-13T13:04:11.660Z,84.05
2023-03-13T13:07:28.869Z,81.76
2023-03-13T13:10:30.359Z,82.11
2023-03-13T13:13:31.953Z,81.25
2023-03-13T13:16:33.341Z,80.36
2023-03-13T13:19:40.674Z,74.99
2023-03-13T13:22:42.143Z,69.29
2023-03-13T13:25:43.680Z,70.38
2023-03-13T13:28:46.599Z,72.72
2023-03-13T13:31:48.214Z,75.33
2023-03-13T13:34:52.696Z,76.01
2023-03-13T13:38:14.971Z,76.39
2023-03-13T13:41:16.319Z,72.87
2023-03-13T13:44:22.877Z,75.72
2023-03-13T13:47:25.418Z,76.48
2023-03-13T13:50:27.918Z,74.15
2023-03-13T13:53:30.647Z,70.78
2023-03-13T13:56:45.701Z,65.59
2023-03-13T14:00:08.600Z,55.24
2023-03-13T14:03:22.358Z,60.34
2023-03-13T14:06:30.667Z,56.86
2023-03-13T14:09:52.428Z,52.85
2023-03-13T14:12:55.130Z,53.70
2023-03-13T14:15:56.659Z,51.25
2023-03-13T14:18:58.193Z,47.44
2023-03-13T14:22:04.867Z,52.03
2023-03-13T14:25:06.551Z,56.17
2023-03-13T14:28:25.131Z,55.33
2023-03-13T14:31:36.966Z,52.91
2023-03-13T14:34:38.474Z,53.64
2023-03-13T14:37:44.658Z,54.12
2023-03-13T14:40:46.207Z,56.18
2023-03-13T14:43:47.697Z,63.23
2023-03-13T14:46:49.192Z,61.77
2023-03-13T14:49:56.232Z,66.11
2023-03-13T14:53:05.183Z,65.91
2023-03-13T14:56:15.074Z,61.76
2023-03-13T14:59:16.647Z,60.79
2023-03-13T15:02:27.089Z,65.94
2023-03-13T15:05:31.911Z,62.71
2023-03-13T15:08:34.437Z,67.24
2023-03-13T15:11:38.586Z,66.35
2023-03-13T15:14:44.295Z,68.03
2023-03-13T15:17:45.819Z,70.21
2023-03-13T15:20:50.989Z,70.55
2023-03-13T15:24:12.825Z,71.96
2023-03-13T15:27:18.447Z,71.86
2023-03-13T15:30:23.055Z,71.68
2023-03-13T15:33:26.572Z,71.75
2023-03-13T15:36:28.392Z,74.64
2023-03-13T15:39:29.871Z,76.78
2023-03-13T15:42:31.233Z,71.51
2023-03-13T15:45:32.920Z,75.31
2023-03-13T15:48:34.450Z,75.37
2023-03-13T15:51:35.788Z,73.93
2023-03-13T15:54:37.271Z,75.07
2023-03-13T15:57:42.019Z,75.09
2023-03-13T16:00:43.788Z,77.10
2023-03-13T16:03:45.301Z,79.69
2023-03-13T16:06:46.617Z,82.71
2023-03-13T16:09:48.282Z,80.78
2023-03-13T16:12:49.800Z,83.08
2023-03-13T16:15:51.428Z,88.31
2023-03-13T16:18:53.006Z,90.70
2023-03-13T16:21:54.345Z,92.88
2023-03-13T16:24:55.835Z,96.38
2023-03-13T16:27:57.605Z,100.00
2023-03-13T16:30:59.151Z,99.28
2023-03-13T16:34:01.078Z,100.00
2023-03-13T16:37:02.615Z,100.00
2023-03-13T16:40:19.230Z,100.00
2023-03-13T16:43:20.800Z,100.00
2023-03-13T16:46:23.943Z,100.00
2023-03-13T16:49:25.494Z,100.00
2023-03-13T16:52:27.006Z,100.00
2023-03-13T16:55:28.833Z,100.00
2023-03-13T16:58:30.475Z,100.00
2023-03-13T17:01:32.134Z,100.00
2023-03-13T17:04:33.659Z,100.00
2023-03-13T17:07:35.169Z,100.00
2023-03-13T17:10:36.690Z,100.00
2023-03-13T17:13:38.609Z,100.00
2023-03-13T17:16:41.352Z,100.00
2023-03-13T17:19:42.849Z,100.00
2023-03-13T17:22:45.484Z,100.00
2023-03-13T17:25:46.963Z,100.00
2023-03-13T17:28:49.770Z,100.00
2023-03-13T17:31:51.317Z,100.00
2023-03-13T17:34:52.835Z,100.00
2023-03-13T17:37:54.390Z,100.00
2023-03-13T17:40:55.895Z,100.00
2023-03-13T17:43:57.703Z,100.00
2023-03-13T17:46:59.222Z,100.00
2023-03-13T17:50:00.797Z,100.00
2023-03-13T17:53:02.450Z,100.00
2023-03-13T17:56:11.786Z,100.00
2023-03-13T17:59:15.165Z,100.00
2023-03-13T18:02:16.703Z,100.00
2023-03-13T18:05:18.415Z,100.00
2023-03-13T18:08:20.697Z,100.00
2023-03-13T18:11:22.348Z,100.00
2023-03-13T18:14:23.906Z,100.00
2023-03-13T18:17:25.873Z,100.00
2023-03-13T18:20:29.566Z,100.00
2023-03-13T18:23:31.097Z,100.00
2023-03-13T18:26:34.276Z,100.00
2023-03-13T18:29:35.825Z,100.00
2023-03-13T18:32:37.379Z,100.00
2023-03-13T18:35:38.970Z,100.00
2023-03-13T18:38:40.453Z,100.00
2023-03-13T18:41:41.945Z,100.00
2023-03-13T18:44:43.438Z,100.00
2023-03-13T18:47:45.053Z,100.00
2023-03-13T18:50:46.714Z,100.00
2023-03-13T18:53:48.303Z,100.00
2023-03-13T18:56:49.915Z,100.00
2023-03-13T18:59:51.460Z,100.00
2023-03-13T19:02:53.007Z,100.00
2023-03-13T19:05:54.582Z,100.00
2023-03-13T19:09:42.119Z,100.00
2023-03-13T19:12:41.586Z,100.00
2023-03-13T19:15:43.088Z,100.00
2023-03-13T19:18:45.229Z,100.00
2023-03-13T19:21:47.050Z,100.00
2023-03-13T19:24:48.558Z,100.00
2023-03-13T19:27:50.060Z,100.00
2023-03-13T19:30:51.578Z,100.00
2023-03-13T19:33:53.536Z,100.00
2023-03-13T19:36:55.063Z,100.00
2023-03-13T19:39:56.574Z,100.00
2023-03-13T19:42:58.102Z,100.00
2023-03-13T19:45:59.593Z,100.00
2023-03-13T19:49:01.664Z,100.00
2023-03-13T19:52:03.278Z,100.00
2023-03-13T19:55:05.540Z,100.00
2023-03-13T19:58:07.158Z,100.00
2023-03-13T20:01:17.191Z,100.00
2023-03-13T20:04:19.341Z,100.00
2023-03-13T20:07:20.865Z,100.00
2023-03-13T20:10:22.470Z,100.00
2023-03-13T20:13:23.978Z,100.00
2023-03-13T20:16:27.811Z,100.00
2023-03-13T20:19:29.699Z,100.00
2023-03-13T20:22:31.238Z,100.00
2023-03-13T20:25:32.755Z,100.00
2023-03-13T20:28:34.655Z,100.00
2023-03-13T20:31:36.213Z,100.00
2023-03-13T20:34:37.756Z,100.00
2023-03-13T20:37:39.343Z,100.00
2023-03-13T20:40:40.848Z,100.00
2023-03-13T20:43:42.520Z,100.00
2023-03-13T20:46:44.067Z,100.00
2023-03-13T20:49:45.598Z,100.00
2023-03-13T20:52:47.131Z,100.00
2023-03-13T20:55:48.892Z,100.00
2023-03-13T20:58:50.403Z,100.00
2023-03-13T21:01:51.936Z,100.00
2023-03-13T21:04:53.513Z,100.00
2023-03-13T21:07:55.005Z,100.00
2023-03-13T21:10:57.502Z,100.00
2023-03-13T21:13:59.101Z,100.00
2023-03-13T21:17:00.619Z,100.00
2023-03-13T21:20:02.146Z,100.00
2023-03-13T21:23:03.624Z,100.00
2023-03-13T21:26:05.376Z,100.00
2023-03-13T21:29:09.197Z,100.00
2023-03-13T21:32:11.289Z,100.00
2023-03-13T21:35:12.841Z,100.00
2023-03-13T21:38:14.390Z,100.00
2023-03-13T21:41:17.552Z,100.00
2023-03-13T21:44:19.635Z,100.00
2023-03-13T21:47:24.543Z,100.00
2023-03-13T21:50:26.188Z,100.00
2023-03-13T21:53:27.678Z,100.00
2023-03-13T21:56:29.192Z,100.00
2023-03-13T21:59:31.869Z,100.00
2023-03-13T22:02:34.016Z,100.00
2023-03-13T22:05:40.694Z,100.00
2023-03-13T22:08:42.672Z,100.00
2023-03-13T22:11:44.142Z,100.00
2023-03-13T22:14:45.666Z,100.00
2023-03-13T22:17:47.205Z,100.00
2023-03-13T22:20:48.905Z,100.00
2023-03-13T22:23:50.518Z,100.00
2023-03-13T22:26:52.016Z,100.00
2023-03-13T22:29:53.577Z,100.00
2023-03-13T22:32:55.096Z,100.00
2023-03-13T22:35:56.722Z,100.00
2023-03-13T22:38:58.239Z,100.00
2023-03-13T22:42:00.083Z,100.00
2023-03-13T22:45:01.549Z,100.00
2023-03-13T22:48:06.207Z,100.00
2023-03-13T22:51:11.954Z,100.00
2023-03-13T22:54:13.424Z,100.00
2023-03-13T22:57:15.120Z,100.00
2023-03-13T23:00:16.938Z,100.00
2023-03-13T23:03:18.776Z,100.00
2023-03-13T23:06:24.410Z,100.00
2023-03-13T23:09:25.923Z,100.00
2023-03-13T23:12:30.648Z,100.00
2023-03-13T23:15:43.097Z,100.00
2023-03-13T23:18:53.764Z,100.00
2023-03-13T23:21:55.380Z,100.00
2023-03-13T23:24:57.114Z,100.00
2023-03-13T23:27:58.650Z,100.00
2023-03-13T23:31:00.848Z,100.00
2023-03-13T23:34:02.333Z,100.00
2023-03-13T23:37:03.852Z,100.00
2023-03-13T23:40:08.238Z,100.00
2023-03-13T23:43:09.772Z,100.00
2023-03-13T23:46:18.861Z,100.00
2023-03-13T23:49:20.352Z,100.00
2023-03-13T23:52:22.183Z,100.00
2023-03-13T23:55:23.689Z,100.00
2023-03-13T23:58:25.550Z,100.00
